sensor_id;sensor_type;location;lat;lon;timestamp;P1;durP1;ratioP1;P2;durP2;ratioP2
31782;SDS011;18351;47.560;9.708;2022-07-29T00:00:59;4.85;;;3.33;;
31782;SDS011;18351;47.560;9.708;2022-07-29T00:03:25;5.63;;;2.10;;
31782;SDS011;18351;47.560;9.708;2022-07-29T00:05:50;2.42;;;2.17;;
31782;SDS011;18351;47.560;9.708;2022-07-29T00:08:20;5.32;;;2.10;;
31782;SDS011;18351;47.560;9.708;2022-07-29T00:10:45;2.92;;;1.80;;
31782;SDS011;18351;47.560;9.708;2022-07-29T00:13:11;4.43;;;1.80;;
31782;SDS011;18351;47.560;9.708;2022-07-29T00:15:40;6.20;;;1.77;;
31782;SDS011;18351;47.560;9.708;2022-07-29T00:18:05;3.13;;;1.80;;
31782;SDS011;18351;47.560;9.708;2022-07-29T00:20:32;1.83;;;1.45;;
31782;SDS011;18351;47.560;9.708;2022-07-29T00:22:57;2.40;;;1.55;;
31782;SDS011;18351;47.560;9.708;2022-07-29T00:25:23;1.90;;;1.52;;
31782;SDS011;18351;47.560;9.708;2022-07-29T00:27:49;2.13;;;1.50;;
31782;SDS011;18351;47.560;9.708;2022-07-29T00:30:14;1.50;;;1.40;;
31782;SDS011;18351;47.560;9.708;2022-07-29T00:32:40;1.27;;;1.10;;
31782;SDS011;18351;47.560;9.708;2022-07-29T00:35:06;3.08;;;1.40;;
31782;SDS011;18351;47.560;9.708;2022-07-29T00:37:50;2.15;;;1.58;;
31782;SDS011;18351;47.560;9.708;2022-07-29T00:40:16;2.28;;;1.30;;
31782;SDS011;18351;47.560;9.708;2022-07-29T00:42:45;1.60;;;1.50;;
31782;SDS011;18351;47.560;9.708;2022-07-29T00:45:12;2.58;;;1.52;;
31782;SDS011;18351;47.560;9.708;2022-07-29T00:47:39;1.42;;;1.23;;
31782;SDS011;18351;47.560;9.708;2022-07-29T00:50:05;1.83;;;1.40;;
31782;SDS011;18351;47.560;9.708;2022-07-29T00:52:36;2.75;;;1.35;;
31782;SDS011;18351;47.560;9.708;2022-07-29T00:55:05;2.70;;;1.60;;
31782;SDS011;18351;47.560;9.708;2022-07-29T00:57:32;1.45;;;1.35;;
31782;SDS011;18351;47.560;9.708;2022-07-29T00:59:59;1.77;;;1.30;;
31782;SDS011;18351;47.560;9.708;2022-07-29T01:02:24;1.70;;;1.48;;
31782;SDS011;18351;47.560;9.708;2022-07-29T01:04:50;1.85;;;1.42;;
31782;SDS011;18351;47.560;9.708;2022-07-29T01:07:16;1.70;;;1.55;;
31782;SDS011;18351;47.560;9.708;2022-07-29T01:09:42;2.58;;;1.75;;
31782;SDS011;18351;47.560;9.708;2022-07-29T01:12:10;1.92;;;1.40;;
31782;SDS011;18351;47.560;9.708;2022-07-29T01:14:37;2.05;;;1.50;;
31782;SDS011;18351;47.560;9.708;2022-07-29T01:31:11;2.17;;;1.70;;
31782;SDS011;18351;47.560;9.708;2022-07-29T01:33:41;1.70;;;1.60;;
31782;SDS011;18351;47.560;9.708;2022-07-29T01:36:21;1.70;;;1.60;;
31782;SDS011;18351;47.560;9.708;2022-07-29T01:39:21;2.25;;;1.55;;
31782;SDS011;18351;47.560;9.708;2022-07-29T01:41:52;2.00;;;1.77;;
31782;SDS011;18351;47.560;9.708;2022-07-29T01:44:45;1.70;;;1.60;;
31782;SDS011;18351;47.560;9.708;2022-07-29T01:47:19;3.15;;;2.00;;
31782;SDS011;18351;47.560;9.708;2022-07-29T01:49:49;1.83;;;1.50;;
31782;SDS011;18351;47.560;9.708;2022-07-29T01:52:27;1.58;;;1.40;;
31782;SDS011;18351;47.560;9.708;2022-07-29T01:54:58;4.28;;;1.73;;
31782;SDS011;18351;47.560;9.708;2022-07-29T01:57:31;11.38;;;2.33;;
31782;SDS011;18351;47.560;9.708;2022-07-29T02:00:00;1.92;;;1.65;;
31782;SDS011;18351;47.560;9.708;2022-07-29T02:02:29;2.78;;;1.60;;
31782;SDS011;18351;47.560;9.708;2022-07-29T02:04:57;2.67;;;1.73;;
31782;SDS011;18351;47.560;9.708;2022-07-29T02:07:25;1.90;;;1.70;;
31782;SDS011;18351;47.560;9.708;2022-07-29T02:09:54;3.35;;;1.60;;
31782;SDS011;18351;47.560;9.708;2022-07-29T02:12:21;3.83;;;1.58;;
31782;SDS011;18351;47.560;9.708;2022-07-29T02:14:49;2.67;;;1.70;;
31782;SDS011;18351;47.560;9.708;2022-07-29T02:17:21;4.55;;;1.52;;
31782;SDS011;18351;47.560;9.708;2022-07-29T02:19:50;1.50;;;1.40;;
31782;SDS011;18351;47.560;9.708;2022-07-29T02:22:20;2.17;;;1.50;;
31782;SDS011;18351;47.560;9.708;2022-07-29T02:24:48;1.45;;;1.35;;
31782;SDS011;18351;47.560;9.708;2022-07-29T02:27:15;2.30;;;1.75;;
31782;SDS011;18351;47.560;9.708;2022-07-29T02:29:43;2.10;;;1.50;;
31782;SDS011;18351;47.560;9.708;2022-07-29T02:32:11;3.17;;;2.00;;
31782;SDS011;18351;47.560;9.708;2022-07-29T02:34:39;3.67;;;1.80;;
31782;SDS011;18351;47.560;9.708;2022-07-29T02:37:05;1.52;;;1.33;;
31782;SDS011;18351;47.560;9.708;2022-07-29T02:39:36;2.00;;;1.52;;
31782;SDS011;18351;47.560;9.708;2022-07-29T02:42:05;5.45;;;1.73;;
31782;SDS011;18351;47.560;9.708;2022-07-29T02:44:34;11.05;;;2.03;;
31782;SDS011;18351;47.560;9.708;2022-07-29T02:50:48;4.20;;;1.90;;
31782;SDS011;18351;47.560;9.708;2022-07-29T02:52:57;3.00;;;1.85;;
31782;SDS011;18351;47.560;9.708;2022-07-29T02:58:09;1.75;;;1.65;;
31782;SDS011;18351;47.560;9.708;2022-07-29T03:00:55;1.83;;;1.70;;
31782;SDS011;18351;47.560;9.708;2022-07-29T03:03:24;2.78;;;1.90;;
31782;SDS011;18351;47.560;9.708;2022-07-29T03:05:56;3.75;;;1.83;;
31782;SDS011;18351;47.560;9.708;2022-07-29T03:08:23;4.32;;;1.75;;
31782;SDS011;18351;47.560;9.708;2022-07-29T03:10:49;2.17;;;1.92;;
31782;SDS011;18351;47.560;9.708;2022-07-29T03:13:17;1.55;;;1.42;;
31782;SDS011;18351;47.560;9.708;2022-07-29T03:15:44;3.63;;;1.70;;
31782;SDS011;18351;47.560;9.708;2022-07-29T03:18:10;2.22;;;1.70;;
31782;SDS011;18351;47.560;9.708;2022-07-29T03:20:37;2.20;;;2.00;;
31782;SDS011;18351;47.560;9.708;2022-07-29T03:23:03;2.20;;;1.90;;
31782;SDS011;18351;47.560;9.708;2022-07-29T03:25:29;1.95;;;1.75;;
31782;SDS011;18351;47.560;9.708;2022-07-29T03:27:55;2.35;;;1.80;;
31782;SDS011;18351;47.560;9.708;2022-07-29T03:30:21;3.22;;;1.70;;
31782;SDS011;18351;47.560;9.708;2022-07-29T03:32:47;4.05;;;1.80;;
31782;SDS011;18351;47.560;9.708;2022-07-29T03:35:14;1.77;;;1.67;;
31782;SDS011;18351;47.560;9.708;2022-07-29T03:37:41;3.28;;;1.60;;
31782;SDS011;18351;47.560;9.708;2022-07-29T03:40:08;2.17;;;1.73;;
31782;SDS011;18351;47.560;9.708;2022-07-29T03:42:37;3.08;;;1.90;;
31782;SDS011;18351;47.560;9.708;2022-07-29T03:45:06;2.28;;;1.77;;
31782;SDS011;18351;47.560;9.708;2022-07-29T03:47:35;2.42;;;1.70;;
31782;SDS011;18351;47.560;9.708;2022-07-29T03:50:06;4.30;;;1.70;;
31782;SDS011;18351;47.560;9.708;2022-07-29T03:52:35;1.73;;;1.60;;
31782;SDS011;18351;47.560;9.708;2022-07-29T03:55:01;2.55;;;1.60;;
31782;SDS011;18351;47.560;9.708;2022-07-29T03:57:27;1.90;;;1.70;;
31782;SDS011;18351;47.560;9.708;2022-07-29T03:59:54;3.17;;;1.55;;
31782;SDS011;18351;47.560;9.708;2022-07-29T04:02:20;3.50;;;1.77;;
31782;SDS011;18351;47.560;9.708;2022-07-29T04:04:47;2.25;;;1.50;;
31782;SDS011;18351;47.560;9.708;2022-07-29T04:07:13;2.95;;;1.55;;
31782;SDS011;18351;47.560;9.708;2022-07-29T04:09:40;3.53;;;1.67;;
31782;SDS011;18351;47.560;9.708;2022-07-29T04:12:06;1.70;;;1.60;;
31782;SDS011;18351;47.560;9.708;2022-07-29T04:14:32;2.20;;;1.58;;
31782;SDS011;18351;47.560;9.708;2022-07-29T04:16:59;3.28;;;1.65;;
31782;SDS011;18351;47.560;9.708;2022-07-29T04:19:25;1.85;;;1.70;;
31782;SDS011;18351;47.560;9.708;2022-07-29T04:21:50;6.13;;;1.90;;
31782;SDS011;18351;47.560;9.708;2022-07-29T04:24:16;2.40;;;1.80;;
31782;SDS011;18351;47.560;9.708;2022-07-29T04:26:42;2.75;;;1.75;;
31782;SDS011;18351;47.560;9.708;2022-07-29T04:29:07;1.75;;;1.65;;
31782;SDS011;18351;47.560;9.708;2022-07-29T04:31:33;5.10;;;1.85;;
31782;SDS011;18351;47.560;9.708;2022-07-29T04:33:58;5.25;;;1.95;;
31782;SDS011;18351;47.560;9.708;2022-07-29T04:36:24;2.90;;;1.70;;
31782;SDS011;18351;47.560;9.708;2022-07-29T04:38:50;2.42;;;1.92;;
31782;SDS011;18351;47.560;9.708;2022-07-29T04:41:15;3.88;;;2.08;;
31782;SDS011;18351;47.560;9.708;2022-07-29T04:43:41;2.10;;;1.90;;
31782;SDS011;18351;47.560;9.708;2022-07-29T04:46:06;8.18;;;1.90;;
31782;SDS011;18351;47.560;9.708;2022-07-29T04:48:32;3.08;;;1.83;;
31782;SDS011;18351;47.560;9.708;2022-07-29T04:50:58;4.50;;;1.55;;
31782;SDS011;18351;47.560;9.708;2022-07-29T04:53:23;1.55;;;1.45;;
31782;SDS011;18351;47.560;9.708;2022-07-29T04:55:50;2.83;;;1.67;;
31782;SDS011;18351;47.560;9.708;2022-07-29T04:58:16;2.13;;;1.55;;
31782;SDS011;18351;47.560;9.708;2022-07-29T05:00:41;3.17;;;1.70;;
31782;SDS011;18351;47.560;9.708;2022-07-29T05:03:07;1.80;;;1.45;;
31782;SDS011;18351;47.560;9.708;2022-07-29T05:05:33;3.00;;;1.65;;
31782;SDS011;18351;47.560;9.708;2022-07-29T05:07:58;2.10;;;1.90;;
31782;SDS011;18351;47.560;9.708;2022-07-29T05:10:24;2.90;;;1.70;;
31782;SDS011;18351;47.560;9.708;2022-07-29T05:12:49;1.80;;;1.65;;
31782;SDS011;18351;47.560;9.708;2022-07-29T05:15:15;1.65;;;1.55;;
31782;SDS011;18351;47.560;9.708;2022-07-29T05:17:42;2.92;;;2.00;;
31782;SDS011;18351;47.560;9.708;2022-07-29T05:20:08;2.40;;;1.60;;
31782;SDS011;18351;47.560;9.708;2022-07-29T05:22:34;3.20;;;1.98;;
31782;SDS011;18351;47.560;9.708;2022-07-29T05:24:59;2.60;;;1.63;;
31782;SDS011;18351;47.560;9.708;2022-07-29T05:27:25;1.95;;;1.75;;
31782;SDS011;18351;47.560;9.708;2022-07-29T05:29:50;1.90;;;1.70;;
31782;SDS011;18351;47.560;9.708;2022-07-29T05:32:16;2.15;;;1.73;;
31782;SDS011;18351;47.560;9.708;2022-07-29T05:34:42;1.67;;;1.48;;
31782;SDS011;18351;47.560;9.708;2022-07-29T05:37:07;3.10;;;1.63;;
31782;SDS011;18351;47.560;9.708;2022-07-29T05:39:33;1.88;;;1.70;;
31782;SDS011;18351;47.560;9.708;2022-07-29T05:41:58;2.53;;;2.20;;
31782;SDS011;18351;47.560;9.708;2022-07-29T05:44:24;1.95;;;1.80;;
31782;SDS011;18351;47.560;9.708;2022-07-29T05:46:49;4.80;;;1.52;;
31782;SDS011;18351;47.560;9.708;2022-07-29T05:49:15;3.38;;;1.70;;
31782;SDS011;18351;47.560;9.708;2022-07-29T05:51:40;2.33;;;1.60;;
31782;SDS011;18351;47.560;9.708;2022-07-29T05:54:06;3.95;;;1.92;;
31782;SDS011;18351;47.560;9.708;2022-07-29T05:56:31;3.53;;;1.73;;
31782;SDS011;18351;47.560;9.708;2022-07-29T05:58:57;3.38;;;1.90;;
31782;SDS011;18351;47.560;9.708;2022-07-29T06:01:23;1.60;;;1.48;;
31782;SDS011;18351;47.560;9.708;2022-07-29T06:03:49;4.10;;;1.70;;
31782;SDS011;18351;47.560;9.708;2022-07-29T06:06:14;3.10;;;1.95;;
31782;SDS011;18351;47.560;9.708;2022-07-29T06:08:40;2.20;;;1.73;;
31782;SDS011;18351;47.560;9.708;2022-07-29T06:11:06;2.72;;;1.67;;
31782;SDS011;18351;47.560;9.708;2022-07-29T06:13:33;8.25;;;2.08;;
31782;SDS011;18351;47.560;9.708;2022-07-29T06:15:59;2.45;;;1.73;;
31782;SDS011;18351;47.560;9.708;2022-07-29T06:18:24;4.25;;;2.20;;
31782;SDS011;18351;47.560;9.708;2022-07-29T06:20:50;3.55;;;1.80;;
31782;SDS011;18351;47.560;9.708;2022-07-29T06:23:16;1.88;;;1.70;;
31782;SDS011;18351;47.560;9.708;2022-07-29T06:25:43;2.78;;;1.70;;
31782;SDS011;18351;47.560;9.708;2022-07-29T06:28:08;2.13;;;1.85;;
31782;SDS011;18351;47.560;9.708;2022-07-29T06:30:34;1.65;;;1.40;;
31782;SDS011;18351;47.560;9.708;2022-07-29T06:32:59;2.05;;;1.85;;
31782;SDS011;18351;47.560;9.708;2022-07-29T06:35:26;3.28;;;1.75;;
31782;SDS011;18351;47.560;9.708;2022-07-29T06:37:52;2.50;;;1.83;;
31782;SDS011;18351;47.560;9.708;2022-07-29T06:40:18;2.20;;;1.52;;
31782;SDS011;18351;47.560;9.708;2022-07-29T06:43:03;4.10;;;1.50;;
31782;SDS011;18351;47.560;9.708;2022-07-29T06:45:28;2.08;;;1.88;;
31782;SDS011;18351;47.560;9.708;2022-07-29T06:47:54;2.00;;;1.55;;
31782;SDS011;18351;47.560;9.708;2022-07-29T06:50:19;3.22;;;1.95;;
31782;SDS011;18351;47.560;9.708;2022-07-29T06:52:46;2.67;;;1.98;;
31782;SDS011;18351;47.560;9.708;2022-07-29T06:55:12;3.72;;;1.70;;
31782;SDS011;18351;47.560;9.708;2022-07-29T06:57:38;2.00;;;1.70;;
31782;SDS011;18351;47.560;9.708;2022-07-29T07:00:04;8.23;;;1.83;;
31782;SDS011;18351;47.560;9.708;2022-07-29T07:02:30;4.15;;;1.67;;
31782;SDS011;18351;47.560;9.708;2022-07-29T07:04:56;2.17;;;1.50;;
31782;SDS011;18351;47.560;9.708;2022-07-29T07:07:21;2.92;;;1.63;;
31782;SDS011;18351;47.560;9.708;2022-07-29T07:09:47;4.07;;;1.80;;
31782;SDS011;18351;47.560;9.708;2022-07-29T07:12:12;1.30;;;1.20;;
31782;SDS011;18351;47.560;9.708;2022-07-29T07:14:38;3.28;;;1.58;;
31782;SDS011;18351;47.560;9.708;2022-07-29T07:17:05;3.38;;;1.67;;
31782;SDS011;18351;47.560;9.708;2022-07-29T07:19:32;1.65;;;1.50;;
31782;SDS011;18351;47.560;9.708;2022-07-29T07:21:57;2.90;;;1.83;;
31782;SDS011;18351;47.560;9.708;2022-07-29T07:24:23;4.95;;;1.42;;
31782;SDS011;18351;47.560;9.708;2022-07-29T07:26:48;2.13;;;1.52;;
31782;SDS011;18351;47.560;9.708;2022-07-29T07:29:14;4.40;;;1.55;;
31782;SDS011;18351;47.560;9.708;2022-07-29T07:31:39;1.83;;;1.65;;
31782;SDS011;18351;47.560;9.708;2022-07-29T07:34:05;1.77;;;1.60;;
31782;SDS011;18351;47.560;9.708;2022-07-29T07:36:31;2.45;;;1.40;;
31782;SDS011;18351;47.560;9.708;2022-07-29T07:38:56;3.47;;;1.60;;
31782;SDS011;18351;47.560;9.708;2022-07-29T07:41:22;1.92;;;1.33;;
31782;SDS011;18351;47.560;9.708;2022-07-29T07:43:47;1.48;;;1.20;;
31782;SDS011;18351;47.560;9.708;2022-07-29T07:46:13;2.58;;;1.35;;
31782;SDS011;18351;47.560;9.708;2022-07-29T07:48:39;1.92;;;1.40;;
31782;SDS011;18351;47.560;9.708;2022-07-29T07:51:05;2.38;;;1.70;;
31782;SDS011;18351;47.560;9.708;2022-07-29T07:53:32;2.05;;;1.20;;
31782;SDS011;18351;47.560;9.708;2022-07-29T07:55:57;3.50;;;1.60;;
31782;SDS011;18351;47.560;9.708;2022-07-29T07:58:23;4.32;;;1.30;;
31782;SDS011;18351;47.560;9.708;2022-07-29T08:00:49;2.25;;;1.65;;
31782;SDS011;18351;47.560;9.708;2022-07-29T08:03:14;3.85;;;1.55;;
31782;SDS011;18351;47.560;9.708;2022-07-29T08:05:40;3.15;;;1.45;;
31782;SDS011;18351;47.560;9.708;2022-07-29T08:08:06;2.25;;;1.38;;
31782;SDS011;18351;47.560;9.708;2022-07-29T08:10:32;3.35;;;1.55;;
31782;SDS011;18351;47.560;9.708;2022-07-29T08:13:16;3.45;;;1.67;;
31782;SDS011;18351;47.560;9.708;2022-07-29T08:15:42;2.20;;;1.50;;
31782;SDS011;18351;47.560;9.708;2022-07-29T08:18:09;2.33;;;1.17;;
31782;SDS011;18351;47.560;9.708;2022-07-29T08:20:36;2.80;;;1.42;;
31782;SDS011;18351;47.560;9.708;2022-07-29T08:23:03;1.40;;;1.30;;
31782;SDS011;18351;47.560;9.708;2022-07-29T08:25:30;1.60;;;1.40;;
31782;SDS011;18351;47.560;9.708;2022-07-29T08:27:56;1.63;;;1.50;;
31782;SDS011;18351;47.560;9.708;2022-07-29T08:30:22;3.00;;;1.15;;
31782;SDS011;18351;47.560;9.708;2022-07-29T08:32:48;2.30;;;1.30;;
31782;SDS011;18351;47.560;9.708;2022-07-29T08:35:15;3.55;;;2.00;;
31782;SDS011;18351;47.560;9.708;2022-07-29T08:37:41;3.88;;;1.83;;
31782;SDS011;18351;47.560;9.708;2022-07-29T08:40:06;3.47;;;1.55;;
31782;SDS011;18351;47.560;9.708;2022-07-29T08:42:32;4.40;;;2.10;;
31782;SDS011;18351;47.560;9.708;2022-07-29T08:44:58;1.83;;;1.60;;
31782;SDS011;18351;47.560;9.708;2022-07-29T08:47:24;1.55;;;1.45;;
31782;SDS011;18351;47.560;9.708;2022-07-29T08:49:52;2.47;;;1.80;;
31782;SDS011;18351;47.560;9.708;2022-07-29T08:52:17;1.70;;;1.60;;
31782;SDS011;18351;47.560;9.708;2022-07-29T08:54:44;2.05;;;1.85;;
31782;SDS011;18351;47.560;9.708;2022-07-29T08:57:14;4.43;;;1.92;;
31782;SDS011;18351;47.560;9.708;2022-07-29T08:59:42;1.63;;;1.52;;
31782;SDS011;18351;47.560;9.708;2022-07-29T09:02:12;2.90;;;1.40;;
31782;SDS011;18351;47.560;9.708;2022-07-29T09:04:46;5.00;;;1.90;;
31782;SDS011;18351;47.560;9.708;2022-07-29T09:07:16;4.10;;;1.60;;
31782;SDS011;18351;47.560;9.708;2022-07-29T09:09:43;2.83;;;1.70;;
31782;SDS011;18351;47.560;9.708;2022-07-29T09:12:09;3.03;;;1.67;;
31782;SDS011;18351;47.560;9.708;2022-07-29T09:14:39;8.15;;;1.50;;
31782;SDS011;18351;47.560;9.708;2022-07-29T09:17:04;3.22;;;1.98;;
31782;SDS011;18351;47.560;9.708;2022-07-29T09:19:32;6.18;;;2.10;;
31782;SDS011;18351;47.560;9.708;2022-07-29T09:21:59;9.40;;;2.00;;
31782;SDS011;18351;47.560;9.708;2022-07-29T09:24:36;3.55;;;1.95;;
31782;SDS011;18351;47.560;9.708;2022-07-29T09:27:19;4.50;;;3.42;;
31782;SDS011;18351;47.560;9.708;2022-07-29T09:29:45;5.28;;;4.65;;
31782;SDS011;18351;47.560;9.708;2022-07-29T09:32:11;3.10;;;2.35;;
31782;SDS011;18351;47.560;9.708;2022-07-29T09:34:37;2.75;;;2.10;;
31782;SDS011;18351;47.560;9.708;2022-07-29T09:37:03;3.28;;;1.77;;
31782;SDS011;18351;47.560;9.708;2022-07-29T09:39:34;2.08;;;1.80;;
31782;SDS011;18351;47.560;9.708;2022-07-29T09:42:04;2.97;;;1.63;;
31782;SDS011;18351;47.560;9.708;2022-07-29T09:44:43;3.17;;;2.15;;
31782;SDS011;18351;47.560;9.708;2022-07-29T09:47:10;2.83;;;1.55;;
31782;SDS011;18351;47.560;9.708;2022-07-29T09:49:49;2.63;;;1.85;;
31782;SDS011;18351;47.560;9.708;2022-07-29T09:52:25;5.00;;;2.30;;
31782;SDS011;18351;47.560;9.708;2022-07-29T09:55:06;6.15;;;2.35;;
31782;SDS011;18351;47.560;9.708;2022-07-29T09:57:33;4.00;;;3.20;;
31782;SDS011;18351;47.560;9.708;2022-07-29T10:00:06;7.20;;;3.55;;
31782;SDS011;18351;47.560;9.708;2022-07-29T10:02:34;7.03;;;3.65;;
31782;SDS011;18351;47.560;9.708;2022-07-29T10:05:02;4.93;;;3.30;;
31782;SDS011;18351;47.560;9.708;2022-07-29T10:10:21;3.20;;;2.90;;
31782;SDS011;18351;47.560;9.708;2022-07-29T10:15:18;4.95;;;3.50;;
31782;SDS011;18351;47.560;9.708;2022-07-29T10:17:45;3.22;;;2.90;;
31782;SDS011;18351;47.560;9.708;2022-07-29T10:20:12;4.18;;;3.20;;
31782;SDS011;18351;47.560;9.708;2022-07-29T10:22:39;3.67;;;2.70;;
31782;SDS011;18351;47.560;9.708;2022-07-29T10:25:06;4.13;;;2.85;;
31782;SDS011;18351;47.560;9.708;2022-07-29T10:27:34;4.68;;;2.75;;
31782;SDS011;18351;47.560;9.708;2022-07-29T10:30:00;2.85;;;2.55;;
31782;SDS011;18351;47.560;9.708;2022-07-29T10:35:13;4.38;;;2.65;;
31782;SDS011;18351;47.560;9.708;2022-07-29T10:43:42;3.22;;;2.10;;
31782;SDS011;18351;47.560;9.708;2022-07-29T10:46:11;3.40;;;2.58;;
31782;SDS011;18351;47.560;9.708;2022-07-29T10:49:20;3.42;;;2.10;;
31782;SDS011;18351;47.560;9.708;2022-07-29T10:54:38;4.25;;;2.38;;
31782;SDS011;18351;47.560;9.708;2022-07-29T11:07:25;2.58;;;2.38;;
31782;SDS011;18351;47.560;9.708;2022-07-29T11:15:14;2.30;;;2.10;;
31782;SDS011;18351;47.560;9.708;2022-07-29T11:25:43;4.00;;;2.28;;
31782;SDS011;18351;47.560;9.708;2022-07-29T11:28:16;3.88;;;2.20;;
31782;SDS011;18351;47.560;9.708;2022-07-29T11:30:50;3.40;;;2.80;;
31782;SDS011;18351;47.560;9.708;2022-07-29T11:36:13;4.05;;;1.70;;
31782;SDS011;18351;47.560;9.708;2022-07-29T11:38:39;2.13;;;1.92;;
31782;SDS011;18351;47.560;9.708;2022-07-29T11:43:48;3.10;;;2.10;;
31782;SDS011;18351;47.560;9.708;2022-07-29T11:49:20;3.47;;;1.90;;
31782;SDS011;18351;47.560;9.708;2022-07-29T11:51:51;1.90;;;1.80;;
31782;SDS011;18351;47.560;9.708;2022-07-29T11:54:21;3.83;;;2.28;;
31782;SDS011;18351;47.560;9.708;2022-07-29T11:56:54;6.50;;;2.63;;
31782;SDS011;18351;47.560;9.708;2022-07-29T11:59:20;3.85;;;2.20;;
31782;SDS011;18351;47.560;9.708;2022-07-29T12:01:53;3.45;;;2.33;;
31782;SDS011;18351;47.560;9.708;2022-07-29T12:04:19;2.13;;;1.92;;
31782;SDS011;18351;47.560;9.708;2022-07-29T12:06:50;2.25;;;2.00;;
31782;SDS011;18351;47.560;9.708;2022-07-29T12:09:17;4.05;;;1.90;;
31782;SDS011;18351;47.560;9.708;2022-07-29T12:11:43;3.55;;;2.20;;
31782;SDS011;18351;47.560;9.708;2022-07-29T12:14:23;3.90;;;1.98;;
31782;SDS011;18351;47.560;9.708;2022-07-29T12:16:57;5.32;;;2.03;;
31782;SDS011;18351;47.560;9.708;2022-07-29T12:19:27;1.98;;;1.88;;
31782;SDS011;18351;47.560;9.708;2022-07-29T12:21:55;2.85;;;1.90;;
31782;SDS011;18351;47.560;9.708;2022-07-29T12:24:23;2.70;;;1.60;;
31782;SDS011;18351;47.560;9.708;2022-07-29T12:26:52;2.13;;;1.80;;
31782;SDS011;18351;47.560;9.708;2022-07-29T12:29:19;2.72;;;1.40;;
31782;SDS011;18351;47.560;9.708;2022-07-29T12:31:47;2.58;;;1.38;;
31782;SDS011;18351;47.560;9.708;2022-07-29T12:34:19;2.65;;;2.10;;
31782;SDS011;18351;47.560;9.708;2022-07-29T12:36:45;1.90;;;1.80;;
31782;SDS011;18351;47.560;9.708;2022-07-29T12:39:11;2.03;;;1.83;;
31782;SDS011;18351;47.560;9.708;2022-07-29T12:41:37;1.50;;;1.40;;
31782;SDS011;18351;47.560;9.708;2022-07-29T12:44:04;3.53;;;3.15;;
31782;SDS011;18351;47.560;9.708;2022-07-29T12:46:29;2.35;;;1.63;;
31782;SDS011;18351;47.560;9.708;2022-07-29T12:48:55;2.67;;;1.75;;
31782;SDS011;18351;47.560;9.708;2022-07-29T12:51:28;2.95;;;1.98;;
31782;SDS011;18351;47.560;9.708;2022-07-29T12:54:02;3.25;;;1.88;;
31782;SDS011;18351;47.560;9.708;2022-07-29T12:56:28;4.07;;;2.20;;
31782;SDS011;18351;47.560;9.708;2022-07-29T12:58:53;1.50;;;1.20;;
31782;SDS011;18351;47.560;9.708;2022-07-29T13:01:20;2.38;;;1.45;;
31782;SDS011;18351;47.560;9.708;2022-07-29T13:03:50;1.45;;;1.27;;
31782;SDS011;18351;47.560;9.708;2022-07-29T13:06:32;3.33;;;1.30;;
31782;SDS011;18351;47.560;9.708;2022-07-29T13:09:17;1.60;;;1.50;;
31782;SDS011;18351;47.560;9.708;2022-07-29T13:11:48;1.45;;;1.35;;
31782;SDS011;18351;47.560;9.708;2022-07-29T13:14:31;2.35;;;1.30;;
31782;SDS011;18351;47.560;9.708;2022-07-29T13:17:05;1.67;;;1.33;;
31782;SDS011;18351;47.560;9.708;2022-07-29T13:22:16;1.25;;;1.10;;
31782;SDS011;18351;47.560;9.708;2022-07-29T13:24:50;1.45;;;1.35;;
31782;SDS011;18351;47.560;9.708;2022-07-29T13:27:18;2.35;;;1.40;;
31782;SDS011;18351;47.560;9.708;2022-07-29T13:29:45;1.77;;;1.52;;
31782;SDS011;18351;47.560;9.708;2022-07-29T13:32:11;1.92;;;1.80;;
31782;SDS011;18351;47.560;9.708;2022-07-29T13:34:38;3.90;;;1.60;;
31782;SDS011;18351;47.560;9.708;2022-07-29T13:37:04;2.35;;;1.42;;
31782;SDS011;18351;47.560;9.708;2022-07-29T13:39:29;6.50;;;1.85;;
31782;SDS011;18351;47.560;9.708;2022-07-29T13:41:55;2.40;;;1.70;;
31782;SDS011;18351;47.560;9.708;2022-07-29T13:44:20;2.53;;;1.58;;
31782;SDS011;18351;47.560;9.708;2022-07-29T13:46:46;3.97;;;2.15;;
31782;SDS011;18351;47.560;9.708;2022-07-29T13:49:12;3.00;;;1.50;;
31782;SDS011;18351;47.560;9.708;2022-07-29T13:51:37;1.33;;;1.23;;
31782;SDS011;18351;47.560;9.708;2022-07-29T13:54:03;1.52;;;1.42;;
31782;SDS011;18351;47.560;9.708;2022-07-29T13:56:29;2.10;;;1.75;;
31782;SDS011;18351;47.560;9.708;2022-07-29T13:58:54;2.28;;;1.70;;
31782;SDS011;18351;47.560;9.708;2022-07-29T14:01:20;2.78;;;2.03;;
31782;SDS011;18351;47.560;9.708;2022-07-29T14:03:46;2.05;;;1.60;;
31782;SDS011;18351;47.560;9.708;2022-07-29T14:06:11;3.67;;;2.47;;
31782;SDS011;18351;47.560;9.708;2022-07-29T14:08:38;4.88;;;2.00;;
31782;SDS011;18351;47.560;9.708;2022-07-29T14:11:03;3.33;;;1.80;;
31782;SDS011;18351;47.560;9.708;2022-07-29T14:13:29;4.15;;;2.13;;
31782;SDS011;18351;47.560;9.708;2022-07-29T14:15:54;2.88;;;1.90;;
31782;SDS011;18351;47.560;9.708;2022-07-29T14:18:20;2.97;;;2.35;;
31782;SDS011;18351;47.560;9.708;2022-07-29T14:20:45;3.75;;;2.40;;
31782;SDS011;18351;47.560;9.708;2022-07-29T14:23:11;2.90;;;2.38;;
31782;SDS011;18351;47.560;9.708;2022-07-29T14:25:37;5.30;;;2.25;;
31782;SDS011;18351;47.560;9.708;2022-07-29T14:28:02;2.58;;;2.03;;
31782;SDS011;18351;47.560;9.708;2022-07-29T14:30:28;2.00;;;1.65;;
31782;SDS011;18351;47.560;9.708;2022-07-29T14:32:53;2.50;;;2.30;;
31782;SDS011;18351;47.560;9.708;2022-07-29T14:35:19;5.63;;;2.17;;
31782;SDS011;18351;47.560;9.708;2022-07-29T14:37:44;5.90;;;2.47;;
31782;SDS011;18351;47.560;9.708;2022-07-29T14:40:10;2.38;;;2.17;;
31782;SDS011;18351;47.560;9.708;2022-07-29T14:42:36;2.85;;;2.50;;
31782;SDS011;18351;47.560;9.708;2022-07-29T14:45:03;3.80;;;2.45;;
31782;SDS011;18351;47.560;9.708;2022-07-29T14:47:30;2.90;;;2.65;;
31782;SDS011;18351;47.560;9.708;2022-07-29T14:49:56;3.25;;;2.60;;
31782;SDS011;18351;47.560;9.708;2022-07-29T14:52:21;3.03;;;2.20;;
31782;SDS011;18351;47.560;9.708;2022-07-29T14:54:47;4.00;;;2.80;;
31782;SDS011;18351;47.560;9.708;2022-07-29T14:57:12;3.38;;;2.47;;
31782;SDS011;18351;47.560;9.708;2022-07-29T14:59:38;3.33;;;2.70;;
31782;SDS011;18351;47.560;9.708;2022-07-29T15:02:03;7.85;;;3.03;;
31782;SDS011;18351;47.560;9.708;2022-07-29T15:04:29;2.70;;;2.50;;
31782;SDS011;18351;47.560;9.708;2022-07-29T15:06:55;3.30;;;3.00;;
31782;SDS011;18351;47.560;9.708;2022-07-29T15:09:20;5.10;;;2.60;;
31782;SDS011;18351;47.560;9.708;2022-07-29T15:11:46;5.35;;;2.67;;
31782;SDS011;18351;47.560;9.708;2022-07-29T15:14:12;4.50;;;2.83;;
31782;SDS011;18351;47.560;9.708;2022-07-29T15:16:38;3.83;;;2.60;;
31782;SDS011;18351;47.560;9.708;2022-07-29T15:19:07;6.80;;;3.03;;
31782;SDS011;18351;47.560;9.708;2022-07-29T15:21:33;4.30;;;2.60;;
31782;SDS011;18351;47.560;9.708;2022-07-29T15:23:59;2.60;;;2.40;;
31782;SDS011;18351;47.560;9.708;2022-07-29T15:26:25;3.83;;;3.42;;
31782;SDS011;18351;47.560;9.708;2022-07-29T15:28:51;5.18;;;2.92;;
31782;SDS011;18351;47.560;9.708;2022-07-29T15:31:17;4.38;;;3.58;;
31782;SDS011;18351;47.560;9.708;2022-07-29T15:33:43;5.15;;;3.33;;
31782;SDS011;18351;47.560;9.708;2022-07-29T15:36:09;5.22;;;3.00;;
31782;SDS011;18351;47.560;9.708;2022-07-29T15:38:37;4.68;;;2.80;;
31782;SDS011;18351;47.560;9.708;2022-07-29T15:41:05;3.38;;;2.88;;
31782;SDS011;18351;47.560;9.708;2022-07-29T15:43:31;3.45;;;2.80;;
31782;SDS011;18351;47.560;9.708;2022-07-29T15:45:59;3.80;;;3.10;;
31782;SDS011;18351;47.560;9.708;2022-07-29T15:48:43;4.68;;;3.92;;
31782;SDS011;18351;47.560;9.708;2022-07-29T15:51:09;5.60;;;4.95;;
31782;SDS011;18351;47.560;9.708;2022-07-29T15:53:34;6.60;;;4.90;;
31782;SDS011;18351;47.560;9.708;2022-07-29T15:56:00;9.73;;;3.72;;
31782;SDS011;18351;47.560;9.708;2022-07-29T15:58:26;3.55;;;3.20;;
31782;SDS011;18351;47.560;9.708;2022-07-29T16:00:51;4.43;;;3.25;;
31782;SDS011;18351;47.560;9.708;2022-07-29T16:03:17;6.13;;;4.57;;